Lansing, MI (48917)

4:33 PM EST on January 27, 2015 (GMT -0500)
(MAC) Lansing | Change Station
CLOSE
Current Station
Personal Weather Station
Location: Lansing, MI
Elevation: 885 ft
Nearby Weather Stations

Elev 885 ft 42.74 °N, 84.66 °W | Updated 3 minutes ago

Partly Cloudy
Partly Cloudy
25.4 °F
Feels Like 20 °F
N
4.0
Wind Variable Wind from ENE
Gusts 4.0 mph

Today
High -- | Low -- °F
--% Chance of Precip.
Yesterday
High -- | Low -- °F
Precip. -- in
7:58 AM 5:44 PM
First Quarter, 57% visible
Pressure 30.22 in
Visibility 10.0 miles
Clouds Scattered Clouds 2900 ft
Windchill 20 °F
Dew Point 14 °F
Humidity 63%
Rainfall 0.00 in
Snow Depth Not available.
UV 1 out of 12
Pollen .10 out of 12
Air Quality Not available.
Flu Activity Not available.
METAR KLAN 272053Z 35007KT 10SM SCT029 M03/M11 A3017 RMK AO2 UPE1957 SLP232 P0000 60000 T10331111 51012

More Conditions Fewer Conditions

Pressure 30.22 in
Visibility 10.0 miles
Clouds Scattered Clouds 2900 ft
Windchill 20 °F
Dew Point 14 °F
Humidity 63%
Rainfall 0.00 in
Snow Depth Not available.
UV 1 out of 12
Pollen .10 out of 12
Air Quality Not available.
Flu Activity Not available.
METAR KLAN 272053Z 35007KT 10SM SCT029 M03/M11 A3017 RMK AO2 UPE1957 SLP232 P0000 60000 T10331111 51012

More Conditions Fewer Conditions

10-Day Weather Forecast

Almanac

Astronomy

Jan. 27, 2015 Rise Set
Actual Time
Civil Twilight
Nautical Twilight
Astronomical Twilight
Moon
Length of Visible Light
Length of Day
Tomorrow will be .
, % of the Moon is Illuminated

Today's Extremes

State Highs State Lows

Community

WunderPhotos

Upload Photos

1,790,918 photos uploaded!

WunderBlogs® & News

Nearby

Air Quality

  Air Quality AQ Index Pollutant
Not available.

Snow Depth

Station Depth Elevation

Earthquake Activity

City Distance Mag. Time & Date
Minimum magnitude displayed is 2.5.

Coastal Water Temperatures

Place Temperature

Nearby Weather Stations